• Join FlightAware (Why Join?)
  • Login
  • US Flag 
03:59PM EST


 

Airport Tracker/Info


-or-


 

Live Flight TrackerFlight Track Log ✈ RPA3284 ✈ 28-Jun-2013 ✈ KCLT - KALB

Flight Track Log - Related Links

Times and Time Zones

All times are in EDT time to prevent confusion due to time zone crossing. See the RPA3284 flight status page for this flight to view local times or setup timezone preferences in your user account.

Time Position Orientation Groundspeed Altitude Reporting Facility
EDT Latitude Longitude Course Direction KTS MPH feet Rate Location/Type
05:58PM 35.1892 -80.9508 64° Northeast 154 177 1,400  Level Atlanta Center
05:59PM 35.1492 -80.9397 167° South 197 227 2,500 1,860 Climbing Atlanta Center
06:01PM 35.5002 -79.8442 71° East  Level FlightAware Approximate
06:01PM 35.1239 -80.7681 100° East 286 329 6,900  Level Atlanta Center
06:02PM 35.5814 -79.5117 74° East  Level FlightAware Approximate
06:02PM 35.1419 -80.6658 78° East 292 336 9,300  Level Atlanta Center
06:03PM 35.6946 -79.1943 64° Northeast  Level FlightAware Approximate
06:03PM 35.1517 -80.5689 83° East 306 352 11,600  Level Atlanta Center
06:04PM 35.1589 -80.4517 86° East 327 376 13,600 2,160 Climbing Atlanta Center
06:05PM 35.1639 -80.3372 87° East 339 390 16,000 2,100 Climbing Atlanta Center
06:07PM 35.1778 -80.1050 86° East 351 404 19,500 1,800 Climbing Washington Center
06:08PM 35.1908 -79.9786 83° East 363 418 21,200 1,680 Climbing Washington Center
06:09PM 35.2000 -79.8444 85° East 382 440 22,900 900 Climbing Washington Center
06:10PM 35.2108 -79.7103 84° East 387 445 23,000  Climbing Washington Center
06:11PM 35.2425 -79.5822 73° East 392 451 23,000  Level Washington Center
06:12PM 35.2800 -79.4517 71° East 392 451 23,000  Level Washington Center
06:13PM 35.3197 -79.3239 69° East 399 459 23,000  Level Washington Center
06:14PM 35.3569 -79.1983 70° East 399 459 23,000  Level Washington Center
06:15PM 35.3958 -79.0828 68° East 399 459 23,000  Level Washington Center
06:16PM 35.4517 -78.9553 62° Northeast 394 453 23,000  Level Washington Center
06:17PM 35.5050 -78.8350 61° Northeast 394 453 23,000  Level Washington Center
06:18PM 35.5583 -78.7144 61° Northeast 394 453 23,000  Level Washington Center
06:19PM 35.6175 -78.5994 58° Northeast 407 468 23,000  Level Washington Center
06:20PM 35.6642 -78.4886 63° Northeast 401 461 23,000  Level Washington Center
06:21PM 35.7169 -78.3703 61° Northeast 396 456 23,000  Level Washington Center
06:22PM 35.7697 -78.2519 61° Northeast 389 448 23,000  Level Washington Center
06:23PM 35.8225 -78.1306 62° Northeast 389 448 23,000  Level Washington Center
06:24PM 35.8833 -78.0147 57° Northeast 389 448 23,000 120 Level Washington Center
06:25PM 35.9500 -77.9064 53° Northeast 395 455 23,300 900 Climbing Washington Center
06:26PM 36.0147 -77.7928 55° Northeast 395 455 24,900 840 Climbing Washington Center
06:27PM 36.0772 -77.6814 55° Northeast 395 455 25,000 60 Climbing Washington Center
06:28PM 36.1419 -77.5647 55° Northeast 395 455 25,100 660 Climbing Washington Center
06:29PM 36.2022 -77.4453 58° Northeast 400 460 26,400 1,260 Climbing Washington Center
06:30PM 36.2686 -77.3233 56° Northeast 413 475 27,600 1,140 Climbing Washington Center
06:31PM 36.3331 -77.2033 56° Northeast 413 475 28,700 660 Climbing Washington Center
06:32PM 36.3931 -77.0731 60° Northeast 422 486 29,000 120 Climbing Washington Center
06:33PM 36.4614 -76.9350 58° Northeast 422 486 29,000  Level Washington Center
06:34PM 36.5253 -76.8119 57° Northeast 422 486 29,000  Level Washington Center
06:35PM 36.5911 -76.7119 51° Northeast 417 480 29,000  Level Washington Center
06:36PM 36.6650 -76.5992 51° Northeast 417 480 29,000  Level Washington Center
06:37PM 36.7433 -76.4733 52° Northeast 417 480 29,000  Level Washington Center
06:38PM 36.8211 -76.3625 49° Northeast 417 480 29,000  Level Washington Center
06:39PM 36.8989 -76.2542 48° Northeast 417 480 29,000  Level Washington Center
06:40PM 36.9831 -76.1508 44° Northeast 422 486 29,000  Level Washington Center
06:41PM 37.0731 -76.0525 41° Northeast 422 486 29,000  Level Washington Center
06:42PM 37.1589 -75.9514 43° Northeast 422 486 29,000  Level Washington Center
06:43PM 37.2428 -75.8500 44° Northeast 422 486 29,000  Level Washington Center
06:44PM 37.3264 -75.7486 44° Northeast 422 486 29,000  Level Washington Center
06:45PM 37.4119 -75.6494 43° Northeast 422 486 29,000  Level Washington Center
06:46PM 37.4953 -75.5422 46° Northeast 422 486 29,000  Level Washington Center
06:47PM 37.5786 -75.4397 44° Northeast 417 480 29,000  Level Washington Center
06:48PM 37.6597 -75.3347 46° Northeast 417 480 29,000  Level Washington Center
06:49PM 37.7431 -75.2372 43° Northeast 412 474 29,000  Level Washington Center
06:50PM 37.8261 -75.1292 46° Northeast 412 474 29,000  Level Washington Center
06:51PM 37.9111 -75.0233 44° Northeast 412 474 29,000  Level Washington Center
06:52PM 37.9939 -74.9197 45° Northeast 412 474 29,000  Level Washington Center
06:53PM 38.0808 -74.8161 43° Northeast 417 480 29,000  Level Washington Center
06:54PM 38.1594 -74.7256 42° Northeast 423 487 29,000  Level Washington Center
06:55PM 38.2611 -74.6478 31° Northeast 423 487 29,000  Level Washington Center
06:56PM 38.3689 -74.5853 24° Northeast 411 473 29,000  Level Washington Center
06:57PM 38.4728 -74.5308 22° Northeast 411 473 29,000  Level Washington Center
06:58PM 38.5786 -74.4656 26° Northeast 416 479 29,000  Level Washington Center
06:59PM 38.6842 -74.4056 24° Northeast 416 479 29,000  Level Washington Center
07:00PM 38.8064 -74.3342 24° Northeast 426 490 29,000  Level Washington Center
07:01PM 38.9142 -74.2764 23° Northeast 426 490 29,000  Level Washington Center
07:02PM 39.0264 -74.2289 18° North 421 484 29,000  Level Washington Center
07:03PM 39.1342 -74.1894 16° North 411 473 29,000  Level Washington Center
07:04PM 39.2447 -74.1792 North 400 460 29,000  Level Washington Center
07:05PM 39.3528 -74.1717 North 395 455 29,000  Level Washington Center
07:06PM 39.4633 -74.1642 North 390 449 29,000  Level Washington Center
07:07PM 39.5311 -74.1622 North 432 497 29,000  Level New York Center
07:08PM 39.6192 -74.1503 North 392 451 29,000  Level New York Center
07:09PM 39.7578 -74.1167 11° North 403 464 29,000  Level New York Center
07:10PM 39.8669 -74.0867 12° North 409 471 29,000  Level New York Center
07:11PM 39.9769 -74.0294 22° Northeast 415 478 29,000  Level New York Center
07:12PM 40.0872 -73.9642 24° Northeast 421 484 29,000  Level New York Center
07:13PM 40.1972 -73.8986 24° Northeast 421 484 29,000  Level New York Center
07:14PM 40.3053 -73.8328 25° Northeast 427 491 29,000 -180 Level New York Center
07:15PM 40.4108 -73.7775 22° Northeast 427 491 28,700 -1,140 Descending New York Center
07:15PM 40.5400 -73.6958 26° Northeast 434 499 26,800 -1,620 Descending New York Center
07:18PM 40.7381 -73.5603 27° Northeast 426 490 23,900 -960 Descending Boston Center
07:19PM 40.8489 -73.5047 21° North 416 479 24,000  Climbing Boston Center
07:20PM 40.9575 -73.5036 360° North 403 464 24,000 -660 Level Boston Center
07:21PM 41.0717 -73.5525 342° North 393 452 22,700 -1,560 Descending Boston Center
07:22PM 41.1736 -73.5458 North 386 444 20,900 -1,380 Descending Boston Center
07:23PM 41.2781 -73.5450 360° North 375 432 20,000 -480 Descending Boston Center
07:24PM 41.3800 -73.5411 North 369 425 20,000 -120 Level Boston Center
07:25PM 41.4822 -73.5403 360° North 364 419 19,800 -900 Descending Boston Center
07:26PM 41.5778 -73.5583 352° North 347 399 18,300 -1,860 Descending Boston Center
07:27PM 41.6756 -73.5742 353° North 353 406 16,100 -1,800 Descending Boston Center
07:28PM 41.7672 -73.5981 349° North 348 400 14,700 -1,500 Descending Boston Center
07:29PM 41.8567 -73.6192 350° North 334 384 13,100 -900 Descending Boston Center
07:30PM 41.9542 -73.6433 350° North 341 392 13,000 -60 Descending Boston Center
07:31PM 42.0519 -73.6703 348° North 373 429 13,000  Level Boston Center
07:31PM 42.1558 -73.7003 348° North 403 464 13,000 -120 Level Boston Center
07:32PM 42.2722 -73.7336 348° North 403 464 12,800 -360 Descending Boston Center
07:33PM 42.3653 -73.8000 332° Northwest 360 414 12,300 -1,260 Descending Boston Center
07:34PM 42.4439 -73.8497 335° Northwest 298 343 10,300 -2,820 Descending Boston Center
07:35PM 42.5206 -73.8711 348° North 265 305 6,700 -2,880 Descending Boston Center
07:36PM 42.5853 -73.8642 North 251 289 4,800 -2,100 Descending Boston Center